Terminal Aerodrome Forecast
Issued by NWS

Home | Current Version | Previous Version | Text Only | Print | Product List | Glossary On
Versions: 1 2 3 4 5 6 7 8 9 10 11 12 13
000
FTUS41 KBTV 281720
TAFSLK
TAF
KSLK 281720Z 2818/2918 26010G17KT P6SM BKN025 OVC035
     FM282200 25005KT P6SM OVC028
     FM290600 24007KT P6SM VCSH OVC025
     FM291300 28005KT P6SM BKN035=

USA.gov is the U.S. government's official web portal to all federal, state and local government web resources and services.